createdAt,value
2018-10-02T00:02:05.243Z,2.10
2018-10-02T00:04:34.147Z,1.90
2018-10-02T00:07:03.174Z,2.10
2018-10-02T00:09:32.071Z,2.20
2018-10-02T00:12:06.206Z,2.53
2018-10-02T00:14:35.360Z,1.93
2018-10-02T00:17:04.351Z,1.70
2018-10-02T00:19:33.371Z,1.90
2018-10-02T00:22:02.343Z,1.97
2018-10-02T00:24:31.298Z,1.57
2018-10-02T00:27:00.235Z,1.37
2018-10-02T00:29:29.219Z,1.40
2018-10-02T00:31:58.393Z,1.33
2018-10-02T00:34:27.339Z,1.53
2018-10-02T00:36:56.371Z,1.53
2018-10-02T00:39:25.447Z,1.67
2018-10-02T00:41:54.611Z,1.20
2018-10-02T00:44:23.567Z,1.30
2018-10-02T00:46:52.576Z,1.20
2018-10-02T00:49:21.595Z,1.37
2018-10-02T00:51:50.583Z,1.67
2018-10-02T00:54:19.512Z,1.40
2018-10-02T00:56:48.516Z,1.40
2018-10-02T00:59:17.547Z,1.30
2018-10-02T01:01:52.320Z,1.43
2018-10-02T01:04:26.991Z,1.40
2018-10-02T01:06:56.157Z,1.10
2018-10-02T01:09:25.101Z,1.40
2018-10-02T01:11:53.999Z,1.87
2018-10-02T01:14:22.927Z,1.80
2018-10-02T01:16:51.941Z,1.40
2018-10-02T01:19:21.079Z,1.30
2018-10-02T01:21:50.047Z,1.43
2018-10-02T01:24:19.207Z,1.80
2018-10-02T01:26:48.108Z,1.90
2018-10-02T01:29:17.149Z,2.10
2018-10-02T01:31:46.088Z,1.73
2018-10-02T01:34:15.062Z,2.07
2018-10-02T01:36:44.086Z,1.57
2018-10-02T01:39:13.105Z,1.80
2018-10-02T01:41:42.092Z,1.87
2018-10-02T01:44:11.141Z,1.60
2018-10-02T01:46:40.091Z,1.80
2018-10-02T01:49:09.059Z,1.60
2018-10-02T01:51:38.071Z,1.87
2018-10-02T01:54:07.067Z,1.70
2018-10-02T01:56:36.016Z,2.43
2018-10-02T01:59:05.019Z,2.20
2018-10-02T02:01:34.118Z,2.40
2018-10-02T02:04:03.075Z,2.57
2018-10-02T02:06:32.148Z,2.07
2018-10-02T02:09:07.079Z,1.97
2018-10-02T02:11:36.379Z,2.60
2018-10-02T02:14:05.396Z,2.60
2018-10-02T02:16:34.281Z,3.00
2018-10-02T02:19:03.275Z,2.77
2018-10-02T02:21:32.127Z,3.33
2018-10-02T02:24:01.023Z,3.83
2018-10-02T02:26:29.915Z,3.40
2018-10-02T02:28:58.854Z,3.90
2018-10-02T02:31:27.758Z,4.00
2018-10-02T02:33:56.879Z,3.60
2018-10-02T02:36:25.838Z,3.70
2018-10-02T02:38:55.157Z,4.37
2018-10-02T02:41:24.265Z,4.03
2018-10-02T02:43:53.171Z,4.07
2018-10-02T02:46:22.188Z,4.83
2018-10-02T02:48:56.607Z,4.57
2018-10-02T02:51:30.988Z,5.57
2018-10-02T02:53:59.977Z,4.57
2018-10-02T02:56:29.895Z,5.43
2018-10-02T02:58:59.860Z,5.70
2018-10-02T03:01:29.371Z,7.03
2018-10-02T03:03:58.669Z,5.93
2018-10-02T03:06:27.631Z,5.77
2018-10-02T03:08:56.913Z,6.00
2018-10-02T03:11:25.904Z,5.33
2018-10-02T03:13:54.859Z,6.50
2018-10-02T03:16:23.855Z,7.00
2018-10-02T03:18:52.840Z,6.13
2018-10-02T03:21:21.926Z,6.70
2018-10-02T03:23:50.876Z,6.17
2018-10-02T03:26:19.793Z,6.37
2018-10-02T03:28:48.724Z,6.80
2018-10-02T03:31:17.655Z,6.77
2018-10-02T03:33:46.649Z,6.03
2018-10-02T03:36:15.579Z,6.23
2018-10-02T03:38:44.732Z,6.83
2018-10-02T03:41:13.722Z,5.63
2018-10-02T03:43:42.791Z,6.60
2018-10-02T03:46:12.882Z,6.17
2018-10-02T03:48:41.923Z,6.20
2018-10-02T03:51:10.940Z,5.57
2018-10-02T03:53:39.957Z,5.40
2018-10-02T03:56:08.900Z,5.30
2018-10-02T03:58:37.897Z,5.03
2018-10-02T04:01:07.066Z,5.27
2018-10-02T04:03:36.118Z,4.57
2018-10-02T04:06:05.186Z,4.87
2018-10-02T04:09:37.567Z,5.20
2018-10-02T04:12:06.556Z,4.67
2018-10-02T04:14:35.599Z,5.20
2018-10-02T04:17:04.773Z,4.87
2018-10-02T04:19:33.680Z,5.03
2018-10-02T04:22:02.651Z,5.80
2018-10-02T04:24:31.519Z,4.53
2018-10-02T04:27:00.381Z,4.53
2018-10-02T04:29:29.358Z,4.53
2018-10-02T04:31:58.259Z,4.30
2018-10-02T04:34:27.214Z,4.83
2018-10-02T04:38:25.682Z,4.00
2018-10-02T04:40:54.606Z,4.60
2018-10-02T04:43:23.550Z,4.10
2018-10-02T04:45:52.522Z,4.13
2018-10-02T04:48:21.476Z,4.00
2018-10-02T04:50:50.394Z,4.03
2018-10-02T04:53:19.318Z,4.27
2018-10-02T04:55:48.289Z,4.30
2018-10-02T04:58:17.244Z,4.40
2018-10-02T05:00:46.160Z,3.77
2018-10-02T05:03:15.066Z,3.97
2018-10-02T05:05:44.029Z,4.70
2018-10-02T05:08:13.144Z,4.50
2018-10-02T05:10:42.034Z,4.73
2018-10-02T05:13:10.924Z,5.27
2018-10-02T05:15:39.803Z,4.63
2018-10-02T05:18:08.821Z,4.87
2018-10-02T05:20:37.773Z,5.77
2018-10-02T05:23:06.770Z,5.40
2018-10-02T05:25:35.695Z,5.27
2018-10-02T05:28:04.584Z,4.97
2018-10-02T05:30:33.497Z,5.70
2018-10-02T05:33:02.429Z,6.00
2018-10-02T05:35:31.445Z,5.77
2018-10-02T05:38:00.329Z,5.20
2018-10-02T05:40:29.264Z,6.17
2018-10-02T05:42:58.176Z,6.33
2018-10-02T05:45:28.136Z,6.00
2018-10-02T05:47:57.123Z,5.67
2018-10-02T05:50:26.236Z,6.57
2018-10-02T05:52:55.177Z,6.03
2018-10-02T05:55:25.006Z,5.67
2018-10-02T05:57:54.036Z,6.83
2018-10-02T06:00:22.985Z,5.50
2018-10-02T06:02:52.037Z,4.97
2018-10-02T06:05:20.957Z,5.67
2018-10-02T06:07:49.981Z,4.53
2018-10-02T06:10:19.024Z,4.60
2018-10-02T06:12:47.981Z,4.83
2018-10-02T06:15:17.067Z,4.27
2018-10-02T06:17:46.050Z,3.60
2018-10-02T06:20:15.183Z,3.50
2018-10-02T06:22:44.156Z,3.90
2018-10-02T06:25:13.161Z,2.57
2018-10-02T06:27:42.097Z,3.53
2018-10-02T06:30:11.105Z,2.83
2018-10-02T06:32:40.119Z,3.10
2018-10-02T06:35:09.029Z,3.43
2018-10-02T06:37:37.991Z,3.80
2018-10-02T06:40:07.033Z,4.13
2018-10-02T06:42:35.991Z,4.40
2018-10-02T06:45:05.171Z,5.43
2018-10-02T06:47:34.011Z,5.10
2018-10-02T06:50:02.959Z,6.27
2018-10-02T06:52:32.291Z,4.90
2018-10-02T06:55:00.810Z,5.50
2018-10-02T06:57:29.717Z,5.57
2018-10-02T06:59:58.598Z,5.67
2018-10-02T07:02:27.524Z,5.37
2018-10-02T07:04:56.415Z,6.77
2018-10-02T07:07:25.567Z,4.83
2018-10-02T07:09:54.529Z,5.23
2018-10-02T07:12:23.490Z,5.00
2018-10-02T07:14:52.438Z,5.13
2018-10-02T07:17:21.430Z,5.07
2018-10-02T07:19:50.307Z,5.00
2018-10-02T07:22:19.220Z,5.20
2018-10-02T07:24:48.327Z,5.23
2018-10-02T07:27:17.419Z,5.87
2018-10-02T07:29:46.235Z,5.27
2018-10-02T07:32:15.283Z,5.30
2018-10-02T07:34:44.193Z,5.50
2018-10-02T07:37:13.129Z,5.30
2018-10-02T07:39:42.012Z,5.97
2018-10-02T07:42:11.111Z,5.77
2018-10-02T07:44:40.026Z,4.87
2018-10-02T07:47:08.848Z,4.73
2018-10-02T07:49:37.836Z,4.17
2018-10-02T07:52:06.788Z,4.90
2018-10-02T07:54:35.760Z,5.20
2018-10-02T07:57:04.847Z,4.93
2018-10-02T07:59:33.774Z,5.30
2018-10-02T08:02:02.716Z,4.97
2018-10-02T08:04:31.623Z,5.07
2018-10-02T08:07:00.600Z,5.43
2018-10-02T08:09:29.506Z,5.40
2018-10-02T08:11:58.494Z,5.40
2018-10-02T08:14:27.383Z,6.30
2018-10-02T08:16:56.287Z,6.67
2018-10-02T08:19:25.370Z,5.67
2018-10-02T08:21:54.272Z,5.77
2018-10-02T08:24:23.188Z,5.67
2018-10-02T08:26:52.219Z,5.63
2018-10-02T08:29:21.122Z,6.00
2018-10-02T08:31:50.120Z,5.63
2018-10-02T08:34:19.048Z,6.30
2018-10-02T08:36:47.976Z,6.07
2018-10-02T08:39:16.992Z,6.00
2018-10-02T08:41:45.902Z,5.93
2018-10-02T08:44:14.836Z,6.33
2018-10-02T08:46:43.859Z,7.07
2018-10-02T08:49:12.822Z,6.27
2018-10-02T08:51:41.775Z,6.97
2018-10-02T08:54:10.665Z,6.83
2018-10-02T08:56:39.737Z,7.27
2018-10-02T08:59:08.741Z,6.83
2018-10-02T09:01:37.643Z,6.07
2018-10-02T09:04:06.723Z,6.77
2018-10-02T09:06:35.742Z,6.40
2018-10-02T09:09:08.919Z,5.53
2018-10-02T09:11:37.877Z,5.40
2018-10-02T09:14:06.835Z,5.03
2018-10-02T09:16:35.882Z,4.97
2018-10-02T09:19:04.754Z,5.60
2018-10-02T09:21:33.768Z,5.10
2018-10-02T09:24:03.034Z,4.70
2018-10-02T09:26:32.064Z,4.97
2018-10-02T09:29:01.421Z,5.20
2018-10-02T09:31:35.558Z,4.93
2018-10-02T09:34:09.610Z,5.10
2018-10-02T09:36:43.903Z,5.27
2018-10-02T09:41:20.469Z,5.23
2018-10-02T09:43:54.295Z,5.57
2018-10-02T09:46:24.175Z,4.73
2018-10-02T09:48:53.102Z,4.60
2018-10-02T09:51:37.939Z,5.73
2018-10-02T09:54:07.201Z,5.47
2018-10-02T09:56:44.221Z,5.80
2018-10-02T09:59:14.566Z,5.20
2018-10-02T10:01:49.047Z,5.97
2018-10-02T10:04:18.473Z,4.97
2018-10-02T10:06:47.690Z,5.80
2018-10-02T10:09:16.780Z,5.10
2018-10-02T10:11:45.908Z,6.20
2018-10-02T10:14:15.040Z,5.50
2018-10-02T10:16:44.246Z,5.20
2018-10-02T10:19:13.385Z,6.00
2018-10-02T10:21:42.534Z,5.43
2018-10-02T10:24:11.704Z,5.60
2018-10-02T10:26:41.053Z,4.93
2018-10-02T10:29:10.053Z,5.33
2018-10-02T10:31:39.167Z,5.63
2018-10-02T10:34:08.282Z,5.23
2018-10-02T10:36:37.451Z,6.10
2018-10-02T10:39:08.235Z,4.93
2018-10-02T10:41:37.381Z,5.87
2018-10-02T10:44:06.561Z,4.83
2018-10-02T10:46:35.867Z,4.33
2018-10-02T10:49:04.995Z,4.70
2018-10-02T10:51:34.097Z,4.20
2018-10-02T10:54:03.185Z,3.87
2018-10-02T10:56:32.313Z,4.10
2018-10-02T10:59:01.420Z,3.80
2018-10-02T11:01:30.479Z,3.37
2018-10-02T11:03:59.519Z,3.70
2018-10-02T11:06:28.555Z,3.20
2018-10-02T11:08:57.716Z,3.63
2018-10-02T11:11:26.897Z,3.10
2018-10-02T11:13:56.243Z,4.27
2018-10-02T11:16:25.269Z,3.77
2018-10-02T11:18:54.525Z,4.07
2018-10-02T11:21:23.639Z,3.73
2018-10-02T11:23:52.719Z,3.37
2018-10-02T11:26:21.789Z,3.77
2018-10-02T11:28:50.885Z,3.23
2018-10-02T11:31:20.157Z,3.80
2018-10-02T11:33:49.263Z,3.40
2018-10-02T11:36:18.344Z,3.47
2018-10-02T11:38:47.415Z,2.50
2018-10-02T11:41:16.539Z,3.60
2018-10-02T11:43:45.566Z,3.07
2018-10-02T11:46:14.602Z,3.30
2018-10-02T11:48:43.688Z,2.70
2018-10-02T11:51:12.737Z,2.37
2018-10-02T11:53:42.024Z,2.67
2018-10-02T11:56:11.134Z,2.67
2018-10-02T11:58:40.194Z,2.70
2018-10-02T12:01:09.458Z,2.90
2018-10-02T12:03:38.560Z,2.70
2018-10-02T12:06:07.733Z,3.27
2018-10-02T12:08:36.875Z,2.80
2018-10-02T12:11:06.279Z,2.93
2018-10-02T12:13:35.582Z,2.80
2018-10-02T12:16:04.534Z,3.10
2018-10-02T12:18:33.730Z,2.90
2018-10-02T12:21:02.893Z,3.00
2018-10-02T12:23:32.052Z,2.60
2018-10-02T12:26:01.289Z,2.40
2018-10-02T12:28:30.385Z,2.43
2018-10-02T12:30:59.538Z,2.60
2018-10-02T12:33:28.617Z,2.20
2018-10-02T12:35:57.772Z,2.23
2018-10-02T12:38:26.877Z,2.77
2018-10-02T12:40:55.966Z,2.77
2018-10-02T12:43:25.046Z,2.20
2018-10-02T12:45:54.181Z,2.70
2018-10-02T12:48:23.377Z,1.97
2018-10-02T12:50:52.453Z,2.70
2018-10-02T12:53:21.613Z,2.37
2018-10-02T12:55:50.689Z,2.30
2018-10-02T12:58:19.828Z,2.20
2018-10-02T13:00:48.936Z,2.00
2018-10-02T13:03:18.140Z,2.13
2018-10-02T13:05:47.292Z,2.47
2018-10-02T13:08:16.430Z,2.47
2018-10-02T13:10:45.508Z,2.67
2018-10-02T13:13:14.675Z,2.10
2018-10-02T13:15:43.706Z,1.80
2018-10-02T13:18:12.796Z,2.00
2018-10-02T13:20:41.836Z,2.00
2018-10-02T13:23:11.031Z,2.43
2018-10-02T13:25:40.210Z,2.67
2018-10-02T13:28:09.316Z,1.83
2018-10-02T13:30:38.591Z,3.03
2018-10-02T13:33:07.932Z,1.70
2018-10-02T13:35:37.023Z,2.30
2018-10-02T13:38:06.410Z,2.13
2018-10-02T13:40:35.536Z,1.73
2018-10-02T13:43:04.635Z,2.50
2018-10-02T13:45:33.715Z,2.57
2018-10-02T13:48:03.008Z,2.20
2018-10-02T13:50:32.152Z,2.20
2018-10-02T13:53:01.181Z,2.10
2018-10-02T13:55:30.302Z,2.23
2018-10-02T13:57:59.428Z,1.43
2018-10-02T14:00:28.536Z,1.60
2018-10-02T14:02:57.586Z,1.93
2018-10-02T14:05:26.668Z,1.80
2018-10-02T14:07:55.758Z,2.07
2018-10-02T14:10:24.781Z,1.97
2018-10-02T14:12:54.080Z,1.83
2018-10-02T14:15:23.201Z,2.33
2018-10-02T14:17:52.337Z,1.70
2018-10-02T14:20:21.494Z,1.90
2018-10-02T14:22:50.660Z,1.83
2018-10-02T14:25:19.837Z,2.20
2018-10-02T14:27:48.852Z,1.73
2018-10-02T14:30:18.084Z,1.97
2018-10-02T14:32:47.224Z,2.63
2018-10-02T14:35:16.301Z,1.87
2018-10-02T14:37:45.404Z,1.67
2018-10-02T14:40:14.488Z,1.40
2018-10-02T14:42:43.620Z,1.77
2018-10-02T14:45:12.701Z,2.10
2018-10-02T14:47:41.778Z,1.67
2018-10-02T14:50:10.900Z,2.40
2018-10-02T14:52:40.018Z,2.50
2018-10-02T14:55:09.133Z,2.20
2018-10-02T14:57:38.203Z,2.27
2018-10-02T15:00:07.571Z,1.70
2018-10-02T15:02:36.712Z,2.40
2018-10-02T15:05:05.906Z,2.50
2018-10-02T15:07:34.920Z,1.83
2018-10-02T15:10:04.581Z,1.77
2018-10-02T15:12:33.684Z,1.83
2018-10-02T15:15:02.756Z,2.30
2018-10-02T15:17:31.860Z,2.00
2018-10-02T15:20:01.056Z,2.07
2018-10-02T15:22:30.102Z,2.30
2018-10-02T15:24:59.288Z,2.23
2018-10-02T15:27:28.355Z,1.90
2018-10-02T15:29:57.530Z,2.03
2018-10-02T15:32:26.623Z,2.10
2018-10-02T15:34:55.694Z,3.57
2018-10-02T15:37:24.977Z,2.50
2018-10-02T15:39:53.984Z,2.20
2018-10-02T15:42:23.014Z,2.90
2018-10-02T15:44:52.102Z,2.73
2018-10-02T15:47:21.230Z,2.30
2018-10-02T15:49:50.264Z,2.43
2018-10-02T15:52:19.318Z,2.63
2018-10-02T15:54:48.426Z,2.60
2018-10-02T15:57:17.564Z,2.53
2018-10-02T15:59:46.626Z,2.27
2018-10-02T16:02:21.234Z,2.23
2018-10-02T16:04:50.331Z,2.73
2018-10-02T16:07:19.468Z,2.20
2018-10-02T16:09:48.593Z,2.83
2018-10-02T16:12:17.646Z,2.03
2018-10-02T16:14:46.719Z,2.47
2018-10-02T16:17:15.729Z,2.73
2018-10-02T16:19:44.795Z,2.73
2018-10-02T16:22:13.863Z,2.60
2018-10-02T16:24:42.951Z,2.90
2018-10-02T16:27:12.061Z,2.33
2018-10-02T16:29:41.189Z,2.57
2018-10-02T16:32:10.261Z,2.33
2018-10-02T16:34:48.983Z,2.40
2018-10-02T16:37:08.418Z,2.63
2018-10-02T16:39:37.611Z,2.47
2018-10-02T16:42:06.734Z,3.07
2018-10-02T16:44:35.743Z,3.10
2018-10-02T16:47:04.923Z,2.00
2018-10-02T16:49:34.090Z,2.50
2018-10-02T16:52:03.089Z,2.70
2018-10-02T16:54:32.107Z,2.67
2018-10-02T16:57:01.184Z,2.53
2018-10-02T16:59:30.336Z,2.57
2018-10-02T17:01:59.376Z,2.07
2018-10-02T17:04:28.641Z,3.13
2018-10-02T17:06:57.850Z,3.10
2018-10-02T17:09:26.915Z,2.87
2018-10-02T17:11:55.942Z,3.17
2018-10-02T17:14:25.165Z,2.40
2018-10-02T17:16:54.248Z,2.80
2018-10-02T17:19:23.284Z,2.80
2018-10-02T17:21:52.445Z,2.60
2018-10-02T17:24:21.500Z,2.70
2018-10-02T17:26:50.614Z,2.90
2018-10-02T17:29:19.898Z,2.80
2018-10-02T17:31:49.026Z,2.83
2018-10-02T17:34:18.228Z,2.97
2018-10-02T17:36:47.228Z,3.17
2018-10-02T17:39:16.324Z,3.00
2018-10-02T17:41:46.238Z,3.43
2018-10-02T17:44:15.468Z,2.90
2018-10-02T17:46:44.698Z,3.20
2018-10-02T17:49:13.704Z,3.27
2018-10-02T17:51:43.072Z,2.87
2018-10-02T17:54:12.199Z,2.90
2018-10-02T17:56:41.480Z,3.30
2018-10-02T17:59:10.724Z,3.00
2018-10-02T18:01:39.894Z,3.27
2018-10-02T18:04:09.196Z,3.27
2018-10-02T18:06:38.220Z,3.00
2018-10-02T18:09:08.138Z,3.13
2018-10-02T18:11:37.498Z,2.97
2018-10-02T18:14:06.609Z,2.90
2018-10-02T18:16:35.904Z,3.07
2018-10-02T18:19:04.941Z,3.87
2018-10-02T18:21:34.054Z,3.93
2018-10-02T18:24:03.191Z,3.40
2018-10-02T18:26:32.374Z,3.30
2018-10-02T18:29:01.414Z,3.93
2018-10-02T18:31:30.539Z,4.60
2018-10-02T18:33:59.669Z,3.20
2018-10-02T18:36:28.741Z,3.50
2018-10-02T18:38:57.861Z,3.67
2018-10-02T18:41:27.894Z,3.40
2018-10-02T18:43:56.953Z,3.40
2018-10-02T18:46:26.114Z,4.23
2018-10-02T18:48:55.261Z,4.23
2018-10-02T18:51:24.316Z,3.57
2018-10-02T18:53:53.993Z,3.80
2018-10-02T18:56:23.594Z,3.73
2018-10-02T18:58:52.936Z,2.70
2018-10-02T19:01:22.125Z,3.13
2018-10-02T19:03:51.343Z,3.57
2018-10-02T19:06:20.555Z,3.73
2018-10-02T19:08:54.951Z,3.00
2018-10-02T19:11:29.506Z,4.30
2018-10-02T19:13:58.852Z,3.23
2018-10-02T19:16:31.205Z,4.57
2018-10-02T19:19:11.191Z,3.87
2018-10-02T19:21:40.505Z,4.47
2018-10-02T19:24:09.705Z,4.43
2018-10-02T19:26:38.913Z,3.60
2018-10-02T19:29:08.197Z,3.57
2018-10-02T19:31:42.712Z,3.77
2018-10-02T19:34:12.173Z,4.23
2018-10-02T19:36:41.503Z,3.33
2018-10-02T19:39:14.020Z,3.40
2018-10-02T19:41:43.277Z,3.80
2018-10-02T19:44:12.637Z,3.30
2018-10-02T19:46:47.201Z,3.77
2018-10-02T19:49:18.669Z,3.03
2018-10-02T19:51:53.580Z,4.07
2018-10-02T19:54:23.806Z,3.40
2018-10-02T19:56:53.108Z,3.23
2018-10-02T19:59:22.695Z,3.77
2018-10-02T20:01:52.101Z,3.63
2018-10-02T20:04:21.308Z,3.47
2018-10-02T20:06:50.373Z,3.73
2018-10-02T20:09:19.579Z,3.07
2018-10-02T20:11:48.867Z,4.13
2018-10-02T20:14:17.923Z,3.33
2018-10-02T20:16:47.120Z,4.07
2018-10-02T20:19:16.272Z,4.30
2018-10-02T20:21:45.486Z,4.47
2018-10-02T20:24:14.851Z,3.40
2018-10-02T20:26:43.979Z,3.40
2018-10-02T20:29:13.212Z,3.87
2018-10-02T20:31:44.874Z,3.30
2018-10-02T20:34:14.100Z,3.57
2018-10-02T20:36:43.280Z,3.10
2018-10-02T20:39:12.973Z,3.47
2018-10-02T20:41:42.205Z,4.00
2018-10-02T20:44:11.322Z,4.00
2018-10-02T20:46:40.474Z,4.37
2018-10-02T20:49:09.730Z,4.50
2018-10-02T20:51:38.718Z,3.93
2018-10-02T20:54:07.899Z,4.00
2018-10-02T20:56:36.995Z,3.40
2018-10-02T20:59:06.121Z,4.33
2018-10-02T21:01:35.289Z,3.80
2018-10-02T21:04:04.417Z,4.97
2018-10-02T21:06:33.503Z,3.80
2018-10-02T21:09:06.064Z,3.67
2018-10-02T21:11:35.099Z,4.00
2018-10-02T21:14:04.253Z,3.83
2018-10-02T21:16:33.361Z,4.70
2018-10-02T21:19:02.514Z,4.03
2018-10-02T21:21:31.661Z,3.43
2018-10-02T21:24:00.779Z,3.90
2018-10-02T21:26:29.872Z,3.37
2018-10-02T21:28:59.003Z,3.67
2018-10-02T21:31:28.033Z,3.53
2018-10-02T21:33:57.176Z,4.13
2018-10-02T21:36:26.341Z,4.00
2018-10-02T21:38:55.483Z,4.00
2018-10-02T21:41:24.641Z,3.67
2018-10-02T21:43:53.837Z,3.47
2018-10-02T21:46:23.056Z,4.60
2018-10-02T21:48:52.152Z,4.03
2018-10-02T21:51:21.145Z,3.83
2018-10-02T21:53:50.238Z,4.03
2018-10-02T21:56:19.358Z,5.07
2018-10-02T21:58:48.626Z,3.70
2018-10-02T22:01:17.748Z,4.87
2018-10-02T22:03:46.830Z,3.70
2018-10-02T22:06:16.004Z,3.43
2018-10-02T22:08:45.260Z,4.17
2018-10-02T22:11:14.437Z,4.80
2018-10-02T22:13:43.618Z,3.97
2018-10-02T22:16:12.841Z,3.40
2018-10-02T22:18:41.938Z,4.10
2018-10-02T22:21:11.112Z,4.13
2018-10-02T22:23:40.344Z,4.23
2018-10-02T22:26:09.473Z,4.67
2018-10-02T22:28:38.522Z,4.10
2018-10-02T22:31:07.595Z,4.23
2018-10-02T22:33:36.766Z,4.40
2018-10-02T22:36:05.838Z,3.27
2018-10-02T22:38:34.914Z,4.13
2018-10-02T22:41:04.032Z,3.70
2018-10-02T22:43:33.198Z,4.53
2018-10-02T22:46:02.350Z,4.60
2018-10-02T22:48:31.430Z,4.63
2018-10-02T22:51:00.493Z,3.67
2018-10-02T22:53:29.634Z,5.00
2018-10-02T22:55:58.809Z,4.63
2018-10-02T22:58:27.909Z,4.53
2018-10-02T23:00:56.957Z,4.47
2018-10-02T23:03:26.137Z,4.80
2018-10-02T23:05:55.664Z,4.47
2018-10-02T23:08:24.899Z,4.53
2018-10-02T23:10:54.062Z,4.33
2018-10-02T23:13:23.140Z,3.90
2018-10-02T23:15:52.242Z,4.20
2018-10-02T23:18:21.356Z,4.63
2018-10-02T23:20:50.523Z,4.13
2018-10-02T23:23:19.532Z,3.63
2018-10-02T23:25:48.705Z,4.97
2018-10-02T23:28:17.812Z,4.53
2018-10-02T23:30:46.837Z,3.80
2018-10-02T23:33:15.963Z,4.40
2018-10-02T23:35:45.105Z,3.97
2018-10-02T23:38:14.192Z,4.93
2018-10-02T23:40:43.263Z,4.83
2018-10-02T23:43:12.359Z,4.87
2018-10-02T23:45:41.471Z,3.83
2018-10-02T23:48:10.555Z,5.33
2018-10-02T23:50:39.622Z,4.60
2018-10-02T23:53:08.705Z,4.40
2018-10-02T23:55:37.805Z,4.90
2018-10-02T23:58:07.204Z,4.40
